Time;durP1;ratioP1;P1;durP2;ratioP2;P2;SDS_P1;SDS_P2;PMS_P1;PMS_P2;Temp;Humidity;BMP_temperature;BMP_pressure;BME280_temperature;BME280_humidity;BME280_pressure;Samples;Min_cycle;Max_cycle;Signal;HPM_P1;HPM_P2
2021/12/02 00:00:54;;;;;;;0.70;0.70;;;;;;;;;;5113886;27;20216;-79
2021/12/02 00:03:21;;;;;;;1.20;0.77;;;;;;;;;;5123495;27;20202;-80
2021/12/02 00:05:48;;;;;;;0.75;0.70;;;;;;;;;;5124024;27;20599;-79
2021/12/02 00:08:15;;;;;;;1.02;0.60;;;;;;;;;;5128398;27;20275;-78
2021/12/02 00:10:43;;;;;;;1.35;0.93;;;;;;;;;;5117751;27;20198;-78
2021/12/02 00:13:14;;;;;;;1.20;0.80;;;;;;;;;;5114413;27;20248;-79
2021/12/02 00:15:47;;;;;;;1.02;0.70;;;;;;;;;;5115274;27;20205;-79
2021/12/02 00:21:05;;;;;;;1.05;0.95;;;;;;;;;;5095289;28;20287;-80
2021/12/02 00:23:37;;;;;;;0.98;0.88;;;;;;;;;;5125739;27;20218;-79
2021/12/02 00:26:05;;;;;;;2.05;0.82;;;;;;;;;;5125170;27;20719;-79
2021/12/02 00:28:33;;;;;;;0.70;0.70;;;;;;;;;;5111768;27;20556;-78
2021/12/02 00:31:02;;;;;;;0.88;0.80;;;;;;;;;;5114298;27;20273;-79
2021/12/02 00:33:30;;;;;;;0.90;0.90;;;;;;;;;;5128533;27;20251;-78
2021/12/02 00:35:58;;;;;;;0.60;0.60;;;;;;;;;;5129240;27;20202;-78
2021/12/02 00:38:26;;;;;;;1.70;0.85;;;5.00;99.90;;;;;;5115853;27;20239;-79
2021/12/02 00:40:54;;;;;;;0.70;0.55;;;;;;;;;;5127017;27;20276;-80
2021/12/02 00:43:21;;;;;;;0.77;0.60;;;;;;;;;;5129440;27;20277;-79
2021/12/02 00:45:49;;;;;;;0.60;0.60;;;;;;;;;;5115056;27;20226;-79
2021/12/02 00:48:17;;;;;;;0.63;0.60;;;;;;;;;;5114083;27;20221;-80
2021/12/02 00:50:45;;;;;;;1.35;0.50;;;;;;;;;;5128068;27;20271;-79
2021/12/02 00:53:13;;;;;;;0.88;0.88;;;;;;;;;;5112792;27;20701;-78
2021/12/02 00:55:41;;;;;;;0.80;0.63;;;;;;;;;;5120409;27;20199;-78
2021/12/02 00:58:08;;;;;;;2.35;1.00;;;;;;;;;;5129151;27;20686;-80
2021/12/02 01:00:36;;;;;;;0.95;0.68;;;;;;;;;;5117782;27;20300;-79
2021/12/02 01:03:04;;;;;;;0.70;0.70;;;;;;;;;;5121867;27;20201;-79
2021/12/02 01:05:31;;;;;;;1.20;0.80;;;;;;;;;;5124350;27;20285;-79
2021/12/02 01:08:01;;;;;;;0.60;0.60;;;;;;;;;;5116117;27;20716;-78
2021/12/02 01:10:29;;;;;;;0.47;0.47;;;;;;;;;;5116783;27;20702;-79
2021/12/02 01:12:58;;;;;;;0.70;0.70;;;;;;;;;;5114430;28;20285;-79
2021/12/02 01:15:26;;;;;;;0.90;0.70;;;;;;;;;;5118525;27;20229;-78
2021/12/02 01:17:53;;;;;;;0.95;0.68;;;;;;;;;;5129056;27;20622;-78
2021/12/02 01:20:22;;;;;;;0.70;0.60;;;;;;;;;;5110100;28;20277;-78
2021/12/02 01:22:49;;;;;;;0.73;0.73;;;;;;;;;;5117877;27;20205;-79
2021/12/02 01:25:18;;;;;;;1.40;0.63;;;;;;;;;;5110853;28;20258;-78
2021/12/02 01:27:47;;;;;;;0.70;0.70;;;;;;;;;;5118786;28;20226;-78
2021/12/02 01:30:14;;;;;;;1.20;1.10;;;;;;;;;;5126981;28;20216;-78
2021/12/02 01:32:42;;;;;;;1.55;0.95;;;;;;;;;;5110610;28;20221;-79
2021/12/02 01:35:10;;;;;;;0.60;0.60;;;;;;;;;;5127813;28;20246;-79
2021/12/02 01:37:39;;;;;;;0.95;0.50;;;;;;;;;;5116305;28;20657;-79
2021/12/02 01:40:07;;;;;;;0.80;0.80;;;;;;;;;;5121459;28;20838;-79
2021/12/02 01:42:40;;;;;;;0.65;0.65;;;4.50;99.90;;;;;;5117706;28;20287;-80
2021/12/02 01:45:08;;;;;;;1.05;0.80;;;;;;;;;;5121012;28;20279;-79
2021/12/02 01:47:38;;;;;;;0.82;0.82;;;;;;;;;;5106854;28;20206;-79
2021/12/02 01:50:07;;;;;;;0.75;0.75;;;;;;;;;;5124471;28;20248;-79
2021/12/02 01:52:34;;;;;;;3.13;1.05;;;;;;;;;;5123454;27;20258;-80
2021/12/02 01:55:07;;;;;;;2.47;2.28;;;;;;;;;;5120845;28;20197;-80
2021/12/02 01:57:35;;;;;;;1.45;1.35;;;;;;;;;;5118824;27;20203;-79
2021/12/02 02:00:08;;;;;;;1.98;1.55;;;;;;;;;;5120654;28;20294;-80
2021/12/02 02:02:37;;;;;;;2.63;1.83;;;4.30;99.90;;;;;;5123077;28;20235;-80
2021/12/02 02:05:08;;;;;;;1.10;0.80;;;;;;;;;;5126496;28;20196;-79
2021/12/02 02:07:37;;;;;;;0.90;0.90;;;;;;;;;;5128562;28;20202;-79
2021/12/02 02:10:08;;;;;;;3.17;2.08;;;;;;;;;;5112782;28;20697;-79
2021/12/02 02:12:39;;;;;;;1.10;0.82;;;;;;;;;;5108251;28;20200;-79
2021/12/02 02:15:07;;;;;;;0.47;0.47;;;;;;;;;;5115638;28;20699;-79
2021/12/02 02:17:39;;;;;;;1.17;0.65;;;;;;;;;;5117486;28;20281;-80
2021/12/02 02:20:11;;;;;;;0.50;0.50;;;;;;;;;;5117779;28;20254;-79
2021/12/02 02:22:41;;;;;;;2.45;0.80;;;;;;;;;;5110851;28;22562;-80
2021/12/02 02:25:12;;;;;;;1.38;0.90;;;;;;;;;;5126124;28;20192;-80
2021/12/02 02:27:41;;;;;;;1.30;0.73;;;;;;;;;;5107986;28;20204;-80
2021/12/02 02:30:11;;;;;;;0.95;0.73;;;;;;;;;;5122386;28;20221;-80
2021/12/02 02:32:41;;;;;;;1.83;0.90;;;;;;;;;;5120076;28;20538;-79
2021/12/02 02:35:08;;;;;;;1.70;1.10;;;;;;;;;;5129921;27;20196;-80
2021/12/02 02:37:37;;;;;;;0.55;0.55;;;;;;;;;;5129737;27;20675;-79
2021/12/02 02:40:09;;;;;;;0.90;0.90;;;;;;;;;;5131674;27;20200;-80
2021/12/02 02:42:37;;;;;;;2.22;0.82;;;;;;;;;;5118792;27;20205;-81
2021/12/02 02:45:05;;;;;;;0.63;0.63;;;;;;;;;;5121598;27;20857;-80
2021/12/02 02:47:32;;;;;;;0.50;0.50;;;;;;;;;;5114422;27;20200;-80
2021/12/02 02:49:59;;;;;;;0.68;0.57;;;;;;;;;;5131592;27;20705;-80
2021/12/02 02:52:26;;;;;;;1.98;0.70;;;;;;;;;;5126475;27;20263;-80
2021/12/02 02:54:54;;;;;;;1.25;1.00;;;;;;;;;;5131360;27;20201;-79
2021/12/02 02:57:27;;;;;;;0.93;0.90;;;;;;;;;;5115454;27;20245;-80
2021/12/02 03:00:05;;;;;;;0.73;0.73;;;;;;;;;;5113507;27;20861;-80
2021/12/02 03:02:38;;;;;;;1.08;1.02;;;;;;;;;;5111888;27;20722;-80
2021/12/02 03:05:16;;;;;;;0.63;0.60;;;;;;;;;;5117415;27;20287;-80
2021/12/02 03:07:46;;;;;;;1.05;0.88;;;;;;;;;;5128565;27;20191;-79
2021/12/02 03:10:18;;;;;;;1.40;0.65;;;;;;;;;;5129224;27;20310;-79
2021/12/02 03:12:55;;;;;;;0.98;0.82;;;;;;;;;;5131283;27;20199;-80
2021/12/02 03:18:08;;;;;;;0.90;0.63;;;;;;;;;;5120930;27;20200;-80
2021/12/02 03:20:35;;;;;;;2.10;1.17;;;;;;;;;;5127912;27;20230;-80
2021/12/02 03:23:02;;;;;;;1.00;0.85;;;;;;;;;;5130944;27;20241;-80
2021/12/02 03:25:30;;;;;;;1.35;1.20;;;;;;;;;;5121993;27;20941;-80
2021/12/02 03:27:58;;;;;;;0.63;0.60;;;;;;;;;;5111512;27;20287;-80
2021/12/02 03:30:25;;;;;;;0.80;0.80;;;;;;;;;;5116604;27;20904;-80
2021/12/02 03:32:53;;;;;;;1.08;0.98;;;;;;;;;;5114380;27;20571;-80
2021/12/02 03:35:20;;;;;;;0.80;0.80;;;;;;;;;;5126647;27;20278;-80
2021/12/02 03:37:47;;;;;;;2.10;1.10;;;;;;;;;;5116358;27;20207;-80
2021/12/02 03:40:14;;;;;;;1.10;1.00;;;;;;;;;;5107835;27;20297;-80
2021/12/02 03:42:46;;;;;;;2.45;0.93;;;;;;;;;;5130286;27;20200;-80
2021/12/02 03:45:14;;;;;;;1.48;1.10;;;;;;;;;;5120404;27;20258;-80
2021/12/02 03:47:42;;;;;;;0.90;0.90;;;;;;;;;;5120175;27;20618;-80
2021/12/02 03:50:09;;;;;;;1.70;1.58;;;;;;;;;;5129583;27;20290;-80
2021/12/02 03:52:37;;;;;;;4.20;1.00;;;;;;;;;;5115279;27;20245;-81
2021/12/02 03:55:04;;;;;;;1.35;1.25;;;;;;;;;;5117575;27;20641;-80
2021/12/02 03:57:32;;;;;;;1.55;1.15;;;;;;;;;;5125875;27;20221;-79
2021/12/02 03:59:59;;;;;;;2.15;1.65;;;;;;;;;;5110659;27;21275;-80
2021/12/02 04:02:28;;;;;;;0.90;0.90;;;;;;;;;;5125936;27;20286;-80
2021/12/02 04:04:55;;;;;;;0.80;0.80;;;;;;;;;;5130269;27;20226;-80
2021/12/02 04:07:25;;;;;;;1.23;1.02;;;;;;;;;;5123770;27;20291;-81
2021/12/02 04:09:53;;;;;;;1.15;1.15;;;;;;;;;;5125080;27;20213;-80
2021/12/02 04:12:26;;;;;;;0.93;0.93;;;;;;;;;;5108748;28;20575;-80
2021/12/02 04:14:58;;;;;;;0.85;0.70;;;;;;;;;;5109932;27;20653;-80
2021/12/02 04:17:40;;;;;;;1.67;0.95;;;;;;;;;;5118850;27;20227;-80
2021/12/02 04:20:11;;;;;;;0.68;0.63;;;;;;;;;;5118068;27;20191;-81
2021/12/02 04:22:38;;;;;;;0.65;0.65;;;;;;;;;;5121988;27;20189;-81
2021/12/02 04:25:07;;;;;;;0.98;0.82;;;;;;;;;;5118460;27;20198;-80
2021/12/02 04:27:34;;;;;;;2.05;0.60;;;;;;;;;;5113437;27;20192;-80
2021/12/02 04:30:01;;;;;;;2.70;0.88;;;;;;;;;;5121719;27;20244;-80
2021/12/02 04:32:28;;;;;;;0.82;0.77;;;;;;;;;;5109744;27;20197;-80
2021/12/02 04:34:56;;;;;;;6.65;1.05;;;;;;;;;;5119035;27;20228;-81
2021/12/02 04:37:24;;;;;;;1.30;0.90;;;;;;;;;;5115174;27;20227;-80
2021/12/02 04:39:51;;;;;;;1.80;1.10;;;;;;;;;;5119483;27;20700;-80
2021/12/02 04:42:19;;;;;;;1.33;1.23;;;;;;;;;;5126714;27;20722;-80
2021/12/02 04:44:46;;;;;;;1.25;0.93;;;;;;;;;;5125052;27;20224;-81
2021/12/02 04:47:13;;;;;;;1.63;1.52;;;;;;;;;;5117072;27;20220;-81
2021/12/02 04:49:41;;;;;;;0.93;0.77;;;;;;;;;;5126066;27;20227;-81
2021/12/02 04:52:08;;;;;;;1.05;0.90;;;;;;;;;;5108241;28;20208;-80
2021/12/02 04:54:37;;;;;;;0.80;0.80;;;;;;;;;;5121544;27;20219;-81
2021/12/02 04:57:04;;;;;;;0.73;0.73;;;;;;;;;;5121559;27;20199;-81
2021/12/02 04:59:31;;;;;;;1.30;1.15;;;;;;;;;;5113463;27;20625;-81
2021/12/02 05:01:59;;;;;;;0.85;0.65;;;;;;;;;;5127025;27;20200;-81
2021/12/02 05:04:26;;;;;;;1.00;0.77;;;;;;;;;;5114633;27;20196;-81
2021/12/02 05:06:54;;;;;;;3.20;1.27;;;;;;;;;;5127023;27;20210;-80
2021/12/02 05:09:21;;;;;;;0.88;0.88;;;;;;;;;;5126933;27;20229;-80
2021/12/02 05:11:49;;;;;;;0.95;0.82;;;;;;;;;;5127338;27;20254;-80
2021/12/02 05:14:17;;;;;;;1.42;0.80;;;;;;;;;;5115275;27;20278;-81
2021/12/02 05:16:44;;;;;;;1.90;0.90;;;;;;;;;;5119802;27;20211;-81
2021/12/02 05:19:11;;;;;;;1.30;1.20;;;;;;;;;;5108818;28;20262;-81
2021/12/02 05:21:38;;;;;;;1.25;1.15;;;;;;;;;;5113647;28;20191;-81
2021/12/02 05:24:06;;;;;;;0.80;0.80;;;;;;;;;;5121845;28;20222;-81
2021/12/02 05:26:33;;;;;;;1.33;0.90;;;;;;;;;;5124275;28;20228;-81
2021/12/02 05:29:02;;;;;;;4.80;1.88;;;;;;;;;;5127677;28;20198;-81
2021/12/02 05:31:29;;;;;;;6.32;1.23;;;;;;;;;;5119182;28;20244;-81
2021/12/02 05:33:56;;;;;;;1.50;1.40;;;;;;;;;;5120994;28;20246;-81
2021/12/02 05:36:23;;;;;;;0.85;0.85;;;;;;;;;;5127259;28;20236;-81
2021/12/02 05:38:51;;;;;;;1.10;1.00;;;;;;;;;;5127760;28;20211;-81
2021/12/02 05:41:18;;;;;;;1.55;1.17;;;;;;;;;;5107783;28;20204;-81
2021/12/02 05:43:45;;;;;;;1.25;1.00;;;;;;;;;;5122970;28;20200;-82
2021/12/02 05:46:14;;;;;;;1.95;0.85;;;;;;;;;;5116288;28;20204;-83
2021/12/02 05:48:41;;;;;;;0.80;0.80;;;;;;;;;;5114727;28;20243;-82
2021/12/02 05:51:08;;;;;;;1.17;1.08;;;;;;;;;;5124777;28;20298;-82
2021/12/02 05:53:36;;;;;;;1.52;1.00;;;;;;;;;;5108312;28;20266;-82
2021/12/02 05:56:03;;;;;;;6.25;1.30;;;;;;;;;;5114892;28;20192;-82
2021/12/02 05:58:30;;;;;;;1.05;1.02;;;;;;;;;;5128308;28;20342;-82
2021/12/02 06:00:57;;;;;;;1.25;1.15;;;;;;;;;;5124749;28;20264;-83
2021/12/02 06:03:26;;;;;;;1.83;0.93;;;;;;;;;;5119818;28;20228;-82
2021/12/02 06:05:53;;;;;;;1.85;1.17;;;;;;;;;;5114906;28;20267;-82
2021/12/02 06:08:20;;;;;;;1.95;1.20;;;;;;;;;;5127940;27;20290;-83
2021/12/02 06:10:48;;;;;;;0.80;0.73;;;;;;;;;;5122697;27;20215;-82
2021/12/02 06:13:16;;;;;;;1.70;1.15;;;;;;;;;;5132490;27;20843;-82
2021/12/02 06:15:43;;;;;;;1.00;0.75;;;;;;;;;;5118550;27;20248;-83
2021/12/02 06:18:11;;;;;;;0.98;0.68;;;;;;;;;;5130426;27;20204;-82
2021/12/02 06:20:39;;;;;;;0.60;0.60;;;;;;;;;;5113016;27;20223;-83
2021/12/02 06:23:06;;;;;;;12.18;0.98;;;;;;;;;;5111665;27;20281;-82
2021/12/02 06:25:46;;;;;;;0.70;0.70;;;;;;;;;;5121238;27;20239;-82
2021/12/02 06:28:13;;;;;;;0.90;0.90;;;;;;;;;;5126187;27;20811;-83
2021/12/02 06:30:40;;;;;;;2.38;1.00;;;;;;;;;;5125480;27;20687;-83
2021/12/02 06:33:08;;;;;;;0.88;0.60;;;;;;;;;;5122461;27;20288;-83
2021/12/02 06:35:35;;;;;;;0.73;0.73;;;;;;;;;;5126374;27;20644;-83
2021/12/02 06:38:04;;;;;;;1.33;0.82;;;;;;;;;;5131629;27;20189;-82
2021/12/02 06:40:31;;;;;;;1.17;0.93;;;;;;;;;;5130178;27;20194;-83
2021/12/02 06:42:59;;;;;;;1.73;1.05;;;;;;;;;;5107846;28;20270;-83
2021/12/02 06:45:26;;;;;;;1.90;1.00;;;;;;;;;;5141874;27;20271;-82
2021/12/02 06:47:58;;;;;;;0.57;0.57;;;;;;;;;;5118304;27;20207;-83
2021/12/02 06:50:25;;;;;;;1.70;0.95;;;;;;;;;;5131108;27;20215;-82
2021/12/02 06:52:54;;;;;;;4.78;0.90;;;3.20;99.90;;;;;;5132123;27;20222;-83
2021/12/02 06:55:23;;;;;;;2.15;0.77;;;;;;;;;;5116765;27;20223;-82
2021/12/02 06:57:50;;;;;;;1.50;0.98;;;;;;;;;;5132781;27;20272;-82
2021/12/02 07:00:18;;;;;;;1.02;0.90;;;;;;;;;;5125280;27;20282;-82
2021/12/02 07:02:46;;;;;;;1.30;0.95;;;;;;;;;;5132433;27;20211;-83
2021/12/02 07:05:17;;;;;;;1.10;1.00;;;3.10;99.90;;;;;;5129981;27;20202;-82
2021/12/02 07:07:45;;;;;;;0.70;0.70;;;;;;;;;;5132150;27;20260;-83
2021/12/02 07:10:14;;;;;;;4.85;1.13;;;;;;;;;;5131420;27;20196;-82
2021/12/02 07:12:44;;;;;;;2.30;1.23;;;;;;;;;;5131689;27;20222;-83
2021/12/02 07:15:16;;;;;;;2.53;1.35;;;;;;;;;;5131771;27;20260;-83
2021/12/02 07:17:45;;;;;;;1.30;1.20;;;;;;;;;;5112933;27;20342;-83
2021/12/02 07:20:12;;;;;;;33.35;6.78;;;;;;;;;;5111652;27;20203;-83
2021/12/02 07:22:40;;;;;;;8.93;2.40;;;;;;;;;;5113017;27;20758;-84
2021/12/02 07:25:07;;;;;;;7.63;2.35;;;;;;;;;;5129684;27;20192;-83
2021/12/02 07:27:35;;;;;;;6.38;1.42;;;;;;;;;;5131881;27;20211;-83
2021/12/02 07:30:04;;;;;;;0.85;0.85;;;;;;;;;;5130780;27;20668;-83
2021/12/02 07:32:36;;;;;;;3.05;0.90;;;;;;;;;;5129693;27;20305;-83
2021/12/02 07:35:09;;;;;;;1.23;0.95;;;3.30;99.90;;;;;;5131330;27;20213;-83
2021/12/02 07:37:37;;;;;;;1.75;1.30;;;;;;;;;;5117471;27;20243;-83
2021/12/02 07:40:04;;;;;;;3.47;1.35;;;;;;;;;;5111687;28;20266;-83
2021/12/02 07:42:32;;;;;;;1.65;1.13;;;;;;;;;;5123653;27;20286;-83
2021/12/02 07:45:00;;;;;;;1.42;1.30;;;;;;;;;;5130823;27;20204;-83
2021/12/02 07:47:28;;;;;;;2.30;1.38;;;;;;;;;;5131710;27;20214;-83
2021/12/02 07:49:56;;;;;;;1.88;1.70;;;;;;;;;;5132106;27;20203;-83
2021/12/02 07:52:27;;;;;;;2.15;1.40;;;;;;;;;;5113814;27;20275;-83
2021/12/02 07:54:55;;;;;;;1.38;1.17;;;;;;;;;;5112112;27;20206;-82
2021/12/02 07:57:23;;;;;;;1.45;1.10;;;;;;;;;;5125957;27;20207;-83
2021/12/02 07:59:50;;;;;;;1.55;1.33;;;;;;;;;;5131845;27;20207;-84
2021/12/02 08:02:18;;;;;;;1.42;1.30;;;;;;;;;;5116189;27;20566;-84
2021/12/02 08:04:47;;;;;;;1.40;1.30;;;;;;;;;;5130899;27;20208;-83
2021/12/02 08:07:14;;;;;;;1.50;1.40;;;;;;;;;;5117103;27;20204;-83
2021/12/02 08:09:41;;;;;;;1.80;1.60;;;;;;;;;;5130490;27;20541;-83
2021/12/02 08:12:09;;;;;;;5.50;2.05;;;;;;;;;;5116684;27;20288;-84
2021/12/02 08:14:36;;;;;;;2.50;1.90;;;;;;;;;;5122526;27;20882;-83
2021/12/02 08:17:04;;;;;;;5.22;1.52;;;;;;;;;;5127016;27;20237;-83
2021/12/02 08:19:31;;;;;;;1.70;1.60;;;;;;;;;;5127610;27;20226;-84
2021/12/02 08:22:00;;;;;;;4.40;1.60;;;;;;;;;;5129430;27;20202;-84
2021/12/02 08:24:27;;;;;;;1.95;1.75;;;;;;;;;;5131397;27;20610;-83
2021/12/02 08:26:54;;;;;;;4.90;2.20;;;;;;;;;;5121205;27;20207;-83
2021/12/02 08:29:22;;;;;;;4.63;1.85;;;;;;;;;;5127799;27;20254;-83
2021/12/02 08:31:49;;;;;;;3.13;2.83;;;;;;;;;;5128345;27;20223;-83
2021/12/02 08:34:18;;;;;;;2.50;2.30;;;;;;;;;;5129936;27;20200;-83
2021/12/02 08:36:48;;;;;;;3.40;2.08;;;;;;;;;;5126447;27;20206;-82
2021/12/02 08:39:21;;;;;;;7.85;2.30;;;;;;;;;;5110005;28;20201;-84
2021/12/02 08:41:50;;;;;;;3.75;1.92;;;;;;;;;;5126704;27;20208;-82
2021/12/02 08:44:18;;;;;;;3.67;2.50;;;;;;;;;;5137463;27;20313;-83
2021/12/02 08:46:47;;;;;;;2.53;2.33;;;;;;;;;;5134026;27;20232;-83
2021/12/02 08:49:14;;;;;;;2.78;2.40;;;;;;;;;;5128818;27;20215;-84
2021/12/02 08:51:41;;;;;;;2.20;2.10;;;;;;;;;;5120044;27;20689;-83
2021/12/02 08:54:09;;;;;;;2.10;1.90;;;;;;;;;;5135439;27;20556;-84
2021/12/02 08:56:38;;;;;;;1.67;1.58;;;;;;;;;;5130558;27;20200;-83
2021/12/02 08:59:05;;;;;;;2.22;2.00;;;;;;;;;;5121075;27;20200;-83
2021/12/02 09:01:33;;;;;;;2.45;1.95;;;;;;;;;;5128736;27;20249;-83
2021/12/02 09:04:02;;;;;;;3.17;2.45;;;;;;;;;;5128631;27;20208;-83
2021/12/02 09:06:29;;;;;;;1.30;1.30;;;;;;;;;;5128898;27;20293;-84
2021/12/02 09:08:58;;;;;;;2.30;2.10;;;;;;;;;;5127685;27;20196;-83
2021/12/02 09:11:25;;;;;;;2.20;1.75;;;;;;;;;;5113248;27;20304;-83
2021/12/02 09:13:57;;;;;;;2.00;1.90;;;;;;;;;;5116695;27;20612;-83
2021/12/02 09:16:24;;;;;;;2.67;2.47;;;;;;;;;;5126720;27;20293;-83
2021/12/02 09:18:53;;;;;;;1.80;1.70;;;;;;;;;;5128687;27;20209;-83
2021/12/02 09:21:20;;;;;;;1.55;1.45;;;;;;;;;;5123693;27;20206;-83
2021/12/02 09:23:48;;;;;;;3.58;2.40;;;;;;;;;;5132600;27;20199;-83
2021/12/02 09:26:15;;;;;;;3.17;2.92;;;;;;;;;;5131540;27;20231;-83
2021/12/02 09:28:42;;;;;;;2.78;2.58;;;;;;;;;;5130342;28;20232;-83
2021/12/02 09:31:11;;;;;;;4.28;2.08;;;;;;;;;;5127047;27;20208;-83
2021/12/02 09:33:38;;;;;;;3.08;2.25;;;;;;;;;;5127725;27;20258;-84
2021/12/02 09:36:05;;;;;;;6.93;1.88;;;;;;;;;;5135893;27;20290;-83
2021/12/02 09:38:32;;;;;;;3.80;2.10;;;;;;;;;;5128897;27;20268;-84
2021/12/02 09:41:00;;;;;;;2.60;1.50;;;;;;;;;;5111807;27;20232;-83
2021/12/02 09:43:27;;;;;;;3.00;1.75;;;;;;;;;;5115336;27;20213;-83
2021/12/02 09:45:54;;;;;;;2.33;1.42;;;;;;;;;;5143829;27;20297;-83
2021/12/02 09:48:24;;;;;;;1.35;1.00;;;;;;;;;;5132771;27;20235;-84
2021/12/02 09:50:54;;;;;;;1.90;1.80;;;;;;;;;;5132352;27;20190;-83
2021/12/02 09:53:25;;;;;;;1.48;1.25;;;;;;;;;;5127121;27;20260;-83
2021/12/02 09:55:57;;;;;;;2.10;1.20;;;;;;;;;;5123287;27;20256;-83
2021/12/02 09:58:26;;;;;;;1.40;1.30;;;;;;;;;;5133955;27;20216;-83
2021/12/02 10:00:58;;;;;;;1.00;1.00;;;;;;;;;;5130963;27;20185;-83
2021/12/02 10:03:31;;;;;;;1.30;1.20;;;;;;;;;;5141078;27;20220;-82
2021/12/02 10:06:05;;;;;;;1.17;1.10;;;;;;;;;;5115147;27;20607;-83
2021/12/02 10:08:36;;;;;;;1.48;1.38;;;;;;;;;;5125090;27;20624;-82
2021/12/02 10:11:05;;;;;;;1.45;1.35;;;;;;;;;;5131616;27;20283;-83
2021/12/02 10:13:38;;;;;;;1.38;1.00;;;4.70;99.90;;;;;;5131048;27;20243;-82
2021/12/02 10:16:08;;;;;;;1.00;0.93;;;;;;;;;;5151949;27;20288;-83
2021/12/02 10:18:43;;;;;;;0.50;0.50;;;;;;;;;;5132259;27;20199;-84
2021/12/02 10:21:22;;;;;;;0.60;0.60;;;;;;;;;;5124191;27;20283;-83
2021/12/02 10:23:49;;;;;;;0.63;0.63;;;;;;;;;;5135063;27;20219;-83
2021/12/02 10:26:18;;;;;;;0.70;0.70;;;;;;;;;;5142376;27;20188;-84
2021/12/02 10:28:47;;;;;;;0.50;0.50;;;;;;;;;;5128787;27;20253;-83
2021/12/02 10:31:18;;;;;;;1.10;0.73;;;;;;;;;;5115535;27;20210;-83
2021/12/02 10:33:50;;;;;;;0.30;0.30;;;;;;;;;;5126504;27;20296;-82
2021/12/02 10:36:23;;;;;;;1.45;1.20;;;;;;;;;;5111115;27;20408;-82
2021/12/02 10:38:51;;;;;;;0.98;0.85;;;;;;;;;;5121294;27;20542;-82
2021/12/02 10:41:21;;;;;;;1.20;1.10;;;;;;;;;;5116133;27;20189;-82
2021/12/02 10:44:17;;;;;;;1.38;1.08;;;2.80;99.90;;;;;;5132584;27;20214;-82
2021/12/02 10:46:56;;;;;;;1.33;1.23;;;;;;;;;;5132393;27;20191;-82
2021/12/02 10:49:26;;;;;;;0.73;0.73;;;;;;;;;;5127858;27;20206;-82
2021/12/02 10:51:54;;;;;;;1.13;0.70;;;;;;;;;;5114575;27;20192;-82
2021/12/02 10:54:22;;;;;;;1.00;0.90;;;;;;;;;;5116528;27;20660;-83
2021/12/02 10:56:51;;;;;;;1.00;0.73;;;;;;;;;;5129921;27;20195;-82
2021/12/02 10:59:29;;;;;;;1.30;1.17;;;;;;;;;;5130268;27;20616;-83
2021/12/02 11:01:57;;;;;;;1.60;1.05;;;;;;;;;;5109593;28;20218;-82
2021/12/02 11:04:25;;;;;;;1.30;0.85;;;;;;;;;;5115482;27;20198;-82
2021/12/02 11:07:00;;;;;;;5.55;1.33;;;;;;;;;;5121773;27;20278;-82
2021/12/02 11:09:28;;;;;;;0.80;0.80;;;;;;;;;;5128828;27;20740;-82
2021/12/02 11:12:18;;;;;;;1.10;0.82;;;;;;;;;;5129531;27;20606;-82
2021/12/02 11:15:01;;;;;;;1.20;1.10;;;;;;;;;;5133386;27;20191;-83
2021/12/02 11:17:30;;;;;;;0.55;0.55;;;;;;;;;;5126585;27;20211;-82
2021/12/02 11:20:00;;;;;;;2.30;1.50;;;;;;;;;;5125546;27;20192;-82
2021/12/02 11:22:28;;;;;;;1.77;1.40;;;;;;;;;;5112510;27;20553;-83
2021/12/02 11:24:55;;;;;;;2.58;1.88;;;;;;;;;;5120006;27;20194;-82
2021/12/02 11:27:24;;;;;;;1.50;1.25;;;;;;;;;;5125373;27;20914;-82
2021/12/02 11:29:55;;;;;;;0.93;0.80;;;;;;;;;;5109224;27;20196;-83
2021/12/02 11:32:27;;;;;;;1.13;1.10;;;;;;;;;;5125906;27;20222;-83
2021/12/02 11:35:01;;;;;;;1.90;1.30;;;;;;;;;;5123370;27;20215;-82
2021/12/02 11:37:29;;;;;;;1.83;1.50;;;;;;;;;;5128875;27;20673;-83
2021/12/02 11:39:58;;;;;;;5.13;1.40;;;;;;;;;;5121535;27;20195;-83
2021/12/02 11:42:25;;;;;;;2.55;1.65;;;;;;;;;;5101557;28;20219;-83
2021/12/02 11:44:52;;;;;;;0.70;0.70;;;;;;;;;;5124673;27;20245;-83
2021/12/02 11:47:19;;;;;;;0.88;0.82;;;;;;;;;;5129326;27;20589;-83
2021/12/02 11:49:49;;;;;;;1.75;1.60;;;;;;;;;;5128329;27;20271;-83
2021/12/02 11:52:18;;;;;;;2.30;1.67;;;;;;;;;;5116970;27;21143;-83
2021/12/02 11:54:48;;;;;;;2.47;2.10;;;;;;;;;;5125686;27;20230;-83
2021/12/02 11:57:16;;;;;;;1.20;1.10;;;;;;;;;;5125595;27;20253;-82
2021/12/02 11:59:43;;;;;;;1.30;1.20;;;;;;;;;;5117504;27;20278;-82
2021/12/02 12:02:10;;;;;;;2.08;1.80;;;;;;;;;;5125768;27;20682;-82
2021/12/02 12:04:39;;;;;;;2.75;1.80;;;;;;;;;;5127128;27;20610;-82
2021/12/02 12:07:10;;;;;;;1.52;1.38;;;;;;;;;;5136173;27;20209;-82
2021/12/02 12:09:40;;;;;;;2.50;2.30;;;;;;;;;;5116945;27;20204;-82
2021/12/02 12:12:07;;;;;;;1.40;1.30;;;;;;;;;;5111959;27;20203;-82
2021/12/02 12:14:36;;;;;;;2.10;2.00;;;;;;;;;;5135546;27;20190;-82
2021/12/02 12:17:08;;;;;;;1.73;1.63;;;;;;;;;;5144298;27;20195;-82
2021/12/02 12:19:40;;;;;;;1.70;1.60;;;;;;;;;;5116729;27;20224;-82
2021/12/02 12:22:10;;;;;;;1.90;1.80;;;;;;;;;;5123657;27;20208;-82
2021/12/02 12:24:43;;;;;;;2.78;1.52;;;;;;;;;;5133407;27;20199;-82
2021/12/02 12:27:11;;;;;;;1.73;1.10;;;;;;;;;;5127914;27;20203;-82
2021/12/02 12:29:39;;;;;;;1.35;1.25;;;;;;;;;;5127913;27;20192;-82
2021/12/02 12:32:36;;;;;;;1.35;1.17;;;;;;;;;;5109350;27;20262;-82
2021/12/02 12:35:07;;;;;;;1.55;1.45;;;;;;;;;;5116049;27;20251;-83
2021/12/02 12:37:51;;;;;;;1.80;1.70;;;;;;;;;;5112613;27;20576;-82
2021/12/02 12:40:22;;;;;;;1.60;1.50;;;;;;;;;;5128510;27;20203;-82
2021/12/02 12:42:54;;;;;;;2.15;1.95;;;;;;;;;;5107789;28;20208;-82
2021/12/02 12:45:26;;;;;;;2.60;1.90;;;;;;;;;;5133967;27;20663;-83
2021/12/02 12:47:54;;;;;;;1.83;1.60;;;;;;;;;;5113015;27;20589;-82
2021/12/02 12:50:23;;;;;;;1.95;1.75;;;;;;;;;;5127766;27;20265;-82
2021/12/02 12:52:54;;;;;;;1.85;1.65;;;;;;;;;;5109778;27;20653;-82
2021/12/02 12:55:23;;;;;;;1.88;1.45;;;;;;;;;;5129218;27;20203;-82
2021/12/02 12:58:10;;;;;;;2.53;2.33;;;;;;;;;;5108565;28;20205;-82
2021/12/02 13:00:39;;;;;;;1.60;1.50;;;;;;;;;;5112856;27;20188;-82
2021/12/02 13:03:10;;;;;;;1.40;1.30;;;;;;;;;;5113064;27;20202;-82
2021/12/02 13:05:48;;;;;;;2.85;1.92;;;;;;;;;;5135415;27;20281;-82
2021/12/02 13:08:19;;;;;;;2.40;2.20;;;;;;;;;;5116274;27;20243;-82
2021/12/02 13:10:52;;;;;;;2.20;1.90;;;;;;;;;;5118569;27;20316;-82
2021/12/02 13:13:45;;;;;;;2.95;2.58;;;;;;;;;;5127212;27;20398;-84
2021/12/02 13:16:32;;;;;;;2.30;1.90;;;;;;;;;;5124752;27;20195;-82
2021/12/02 13:19:01;;;;;;;2.85;2.50;;;;;;;;;;5127727;27;20208;-84
2021/12/02 13:21:33;;;;;;;2.92;2.70;;;;;;;;;;5110650;28;20198;-84
2021/12/02 13:24:02;;;;;;;3.17;2.97;;;;;;;;;;5119315;27;20201;-85
2021/12/02 13:26:32;;;;;;;2.70;2.50;;;;;;;;;;5110471;27;20203;-83
2021/12/02 13:29:01;;;;;;;2.78;2.55;;;;;;;;;;5132185;27;20187;-83
2021/12/02 13:31:29;;;;;;;2.60;2.40;;;;;;;;;;5119185;28;20283;-83
2021/12/02 13:33:58;;;;;;;4.03;2.60;;;;;;;;;;5113885;28;20703;-83
2021/12/02 13:36:36;;;;;;;3.90;2.10;;;3.20;99.90;;;;;;5109238;28;20235;-83
2021/12/02 13:39:34;;;;;;;1.08;1.00;;;;;;;;;;5118073;28;20209;-83
2021/12/02 13:42:06;;;;;;;2.40;1.20;;;;;;;;;;5123980;28;20207;-84
2021/12/02 13:44:35;;;;;;;1.40;1.30;;;;;;;;;;5127620;27;20553;-83
2021/12/02 13:47:07;;;;;;;3.42;1.27;;;3.60;99.90;;;;;;5113116;28;20204;-84
2021/12/02 13:49:43;;;;;;;2.10;1.20;;;;;;;;;;5113321;27;20665;-83
2021/12/02 13:52:23;;;;;;;1.05;1.02;;;2.90;99.90;;;;;;5115765;28;20204;-83
2021/12/02 13:54:54;;;;;;;1.45;1.35;;;;;;;;;;5119290;27;20231;-84
2021/12/02 13:57:31;;;;;;;2.17;1.90;;;;;;;;;;5128589;28;20725;-83
2021/12/02 13:59:58;;;;;;;1.60;1.50;;;;;;;;;;5127546;28;20193;-84
2021/12/02 14:02:27;;;;;;;0.98;0.98;;;;;;;;;;5127786;28;20229;-84
2021/12/02 14:04:55;;;;;;;1.70;1.60;;;;;;;;;;5127440;28;20198;-84
2021/12/02 14:07:24;;;;;;;1.10;1.00;;;2.70;99.90;;;;;;5125630;28;20214;-83
2021/12/02 14:09:54;;;;;;;1.20;1.10;;;2.60;99.90;;;;;;5128688;27;20205;-85
2021/12/02 14:12:24;;;;;;;0.80;0.80;;;2.50;99.90;;;;;;5118089;28;20266;-83
2021/12/02 14:15:09;;;;;;;1.70;1.30;;;;;;;;;;5129538;27;21175;-83
2021/12/02 14:17:49;;;;;;;1.90;1.35;;;2.70;99.90;;;;;;5110291;28;20746;-83
2021/12/02 14:20:18;;;;;;;1.80;1.08;;;2.50;99.90;;;;;;5114066;28;20448;-84
2021/12/02 14:22:50;;;;;;;1.23;1.13;;;2.60;99.90;;;;;;5121509;28;20289;-83
2021/12/02 14:25:17;;;;;;;1.27;1.17;;;;;;;;;;5113620;27;20208;-83
2021/12/02 14:27:44;;;;;;;1.33;1.23;;;;;;;;;;5126885;27;20191;-83
2021/12/02 14:30:15;;;;;;;2.60;1.38;;;;;;;;;;5126587;27;20234;-83
2021/12/02 14:32:44;;;;;;;1.23;1.13;;;2.30;99.90;;;;;;5129841;27;20211;-83
2021/12/02 14:35:15;;;;;;;1.13;1.05;;;2.50;99.90;;;;;;5123793;27;20659;-83
2021/12/02 14:37:45;;;;;;;1.70;1.60;;;2.50;99.90;;;;;;5112690;27;20249;-83
2021/12/02 14:40:14;;;;;;;4.57;1.52;;;;;;;;;;5116521;27;20208;-83
2021/12/02 14:42:44;;;;;;;1.75;1.33;;;2.30;99.90;;;;;;5120495;27;20747;-83
2021/12/02 14:45:24;;;;;;;1.42;1.33;;;;;;;;;;5118300;27;20195;-83
2021/12/02 14:47:53;;;;;;;8.10;1.50;;;;;;;;;;5114393;27;20199;-83
2021/12/02 14:50:21;;;;;;;5.80;4.05;;;;;;;;;;5113203;27;20202;-83
2021/12/02 14:52:50;;;;;;;2.63;2.03;;;;;;;;;;5124122;27;20204;-83
2021/12/02 14:55:23;;;;;;;15.40;13.13;;;;;;;;;;5127534;27;20193;-83